»·PEaware :: WAT415 KLAS-KSAN

WAT415 :: KLAS-KSAN

FLIGHT INFORMATION

Flight Status: Arrived
Operator:
Walker Air Transport
More flights by this operator :: More flights under this callsign
Pilot: Spencer F. (32151)
Aircraft: CIRRUS SR-22 TURBO
(S22T)
More flights by this aircraft type
Origin: KLAS McCarran Intl
United States
Destination: KSAN San Diego Intl-Lindbergh
United States
More flights between these airports :: More routes between these airports
Route: LAS V538 TNP V514 MZB
File this flight plan on PilotEdge
Remarks:
Altitude:
(Current/Filed)
11,000ft
Speed:
(Current/Filed)
175kts
Departed: 21-Nov-20 02:32 PM
Arrived: 21-Nov-20 03:59 PM
Distance/Time
Traveled:
225nm/1:27
Distance/Time
To Go:
Arrived

Flight Plot

Page will automatically refresh every two minutes.


Map Options




Map Legend


Flown Route
Filed Route
Departure Airport
Arrival Airport
Navaid (VOR, NDB)
Fix

Horizontal Profiles

Position Reports

Time Latitude Longitude Heading Altitude Ground
Speed
21-Nov-20 14:22 36.099897 -115.159913 214 2093ft 0kts
21-Nov-20 14:24 36.099897 -115.159913 214 2093ft 0kts
21-Nov-20 14:24 36.099897 -115.159913 214 2093ft 0kts
21-Nov-20 14:26 36.099897 -115.159913 214 2093ft 0kts
21-Nov-20 14:26 36.099897 -115.159913 214 2093ft 0kts
21-Nov-20 14:27 36.099897 -115.159913 214 2093ft 0kts
21-Nov-20 14:28 36.099520 -115.159476 112 2092ft 10kts
21-Nov-20 14:29 36.099843 -115.157486 97 2085ft 0kts
21-Nov-20 14:30 36.099843 -115.157487 97 2085ft 0kts
21-Nov-20 14:31 36.095664 -115.158720 205 2096ft 86kts
21-Nov-20 14:32 36.068672 -115.171580 196 3516ft 112kts
21-Nov-20 14:33 36.035735 -115.177057 186 5270ft 115kts
21-Nov-20 14:34 36.001249 -115.180561 186 7031ft 118kts
21-Nov-20 14:35 35.967700 -115.182976 186 8715ft 120kts
21-Nov-20 14:36 35.933877 -115.182900 184 10391ft 121kts
21-Nov-20 14:37 35.893105 -115.182648 183 11088ft 180kts
21-Nov-20 14:38 35.839179 -115.182183 182 11061ft 193kts
21-Nov-20 14:39 35.784594 -115.181725 182 11060ft 194kts
21-Nov-20 14:40 35.730078 -115.181275 182 11060ft 194kts
21-Nov-20 14:41 35.676012 -115.180831 182 11059ft 194kts
21-Nov-20 14:42 35.621641 -115.180383 183 11151ft 191kts
21-Nov-20 14:43 35.567705 -115.179945 183 11151ft 190kts
21-Nov-20 14:44 35.514606 -115.179511 183 11151ft 190kts
21-Nov-20 14:45 35.461370 -115.179076 183 11149ft 190kts
21-Nov-20 14:46 35.407853 -115.178639 183 11147ft 190kts
21-Nov-20 14:47 35.354622 -115.178205 183 11144ft 190kts
21-Nov-20 14:48 35.300865 -115.177764 183 11109ft 191kts
21-Nov-20 14:49 35.246436 -115.177321 183 11072ft 191kts
21-Nov-20 14:50 35.191672 -115.176878 183 11037ft 191kts
21-Nov-20 14:51 35.135895 -115.176434 183 11038ft 190kts
21-Nov-20 14:52 35.085624 -115.196539 203 11042ft 186kts
21-Nov-20 14:53 35.035565 -115.218727 203 11035ft 187kts
21-Nov-20 14:54 34.986231 -115.240476 203 11027ft 187kts
21-Nov-20 14:55 34.937322 -115.262048 203 11026ft 185kts
21-Nov-20 14:56 34.888720 -115.283463 203 11026ft 183kts
21-Nov-20 14:57 34.840306 -115.304768 203 11026ft 182kts
21-Nov-20 14:58 34.792011 -115.325994 203 11026ft 182kts
21-Nov-20 14:59 34.743583 -115.347247 203 11026ft 182kts
21-Nov-20 15:00 34.694864 -115.368601 203 11034ft 181kts
21-Nov-20 15:01 34.646914 -115.389591 203 11061ft 181kts
21-Nov-20 15:02 34.599281 -115.410417 203 11093ft 182kts
21-Nov-20 15:03 34.551806 -115.431148 203 11130ft 182kts
21-Nov-20 15:04 34.504061 -115.451972 203 11136ft 182kts
21-Nov-20 15:05 34.456151 -115.472841 203 11135ft 183kts
21-Nov-20 15:06 34.408058 -115.493764 203 11155ft 182kts
21-Nov-20 15:07 34.360029 -115.514637 203 11163ft 182kts
21-Nov-20 15:08 34.315161 -115.541598 225 11166ft 178kts
21-Nov-20 15:09 34.278825 -115.582536 225 11162ft 178kts
21-Nov-20 15:10 34.242350 -115.623630 225 11162ft 178kts
21-Nov-20 15:11 34.205967 -115.664572 225 11165ft 179kts
21-Nov-20 15:12 34.169441 -115.705627 225 11165ft 179kts
21-Nov-20 15:13 34.132852 -115.746703 225 11165ft 179kts
21-Nov-20 15:14 34.094124 -115.784513 216 11165ft 180kts
21-Nov-20 15:15 34.051989 -115.818700 216 11139ft 181kts
21-Nov-20 15:16 34.009671 -115.852979 216 11091ft 182kts
21-Nov-20 15:17 33.967247 -115.887297 216 11051ft 183kts
21-Nov-20 15:18 33.924589 -115.921760 216 11002ft 183kts
21-Nov-20 15:19 33.881941 -115.956175 216 10990ft 182kts
21-Nov-20 15:20 33.839760 -115.990179 216 10990ft 182kts
21-Nov-20 15:21 33.797503 -116.024201 216 10990ft 181kts
21-Nov-20 15:22 33.755544 -116.057930 216 10990ft 181kts
21-Nov-20 15:23 33.713502 -116.091684 216 10990ft 181kts
21-Nov-20 15:24 33.670782 -116.125942 216 10990ft 181kts
21-Nov-20 15:25 33.626924 -116.161185 218 10989ft 181kts
21-Nov-20 15:26 33.585081 -116.197934 218 10990ft 181kts
21-Nov-20 15:27 33.544486 -116.233563 218 10999ft 181kts
21-Nov-20 15:28 33.503453 -116.269535 218 10999ft 181kts
21-Nov-20 15:29 33.461580 -116.306200 218 10999ft 181kts
21-Nov-20 15:30 33.419348 -116.343134 218 10998ft 181kts
21-Nov-20 15:31 33.377291 -116.379870 218 10998ft 181kts
21-Nov-20 15:32 33.335454 -116.416366 218 11000ft 181kts
21-Nov-20 15:33 33.294636 -116.451929 218 11005ft 181kts
21-Nov-20 15:34 33.253872 -116.487403 218 11014ft 180kts
21-Nov-20 15:35 33.212002 -116.523794 218 11023ft 180kts
21-Nov-20 15:36 33.168332 -116.561715 218 10580ft 192kts
21-Nov-20 15:37 33.118828 -116.588117 188 10032ft 190kts
21-Nov-20 15:38 33.066632 -116.593550 188 10033ft 181kts
21-Nov-20 15:39 33.015308 -116.598881 188 10034ft 180kts
21-Nov-20 15:40 32.961011 -116.604531 188 9152ft 199kts
21-Nov-20 15:41 32.908323 -116.609963 188 9029ft 183kts
21-Nov-20 15:42 32.855716 -116.615404 188 9024ft 183kts
21-Nov-20 15:43 32.801319 -116.621044 187 8855ft 193kts
21-Nov-20 15:45 32.715938 -116.586478 240 6497ft 188kts
21-Nov-20 15:46 32.697923 -116.641423 251 6020ft 167kts
21-Nov-20 15:47 32.688135 -116.699002 260 5298ft 179kts
21-Nov-20 15:48 32.679485 -116.755054 260 5018ft 158kts
21-Nov-20 15:49 32.671500 -116.806335 260 5025ft 156kts
21-Nov-20 15:50 32.663547 -116.857661 260 5026ft 156kts
21-Nov-20 15:51 32.666254 -116.909145 282 4824ft 166kts
21-Nov-20 15:52 32.678410 -116.963425 286 3995ft 162kts
21-Nov-20 15:53 32.689884 -117.010499 286 3984ft 138kts
21-Nov-20 15:54 32.700457 -117.053817 286 3977ft 134kts
21-Nov-20 15:55 32.710899 -117.096630 286 3960ft 136kts
21-Nov-20 15:56 32.721622 -117.141170 285 2270ft 141kts
21-Nov-20 15:57 32.730561 -117.177573 286 67ft 99kts
21-Nov-20 15:58 32.733798 -117.188182 5 20ft 8kts
21-Nov-20 16:00 32.734006 -117.188077 34 20ft 0kts
21-Nov-20 16:01 32.734006 -117.188077 34 20ft 0kts
21-Nov-20 16:02 32.734033 -117.188058 26 20ft 4kts
21-Nov-20 16:03 32.734714 -117.187980 355 20ft 0kts

Navigation Log

Ident Type
Flight plan parsing failed, navigation log unavailable